Time;durP1;ratioP1;P1;durP2;ratioP2;P2;SDS_P1;SDS_P2;PMS_P1;PMS_P2;Temp;Humidity;BMP_temperature;BMP_pressure;BME280_temperature;BME280_humidity;BME280_pressure;Samples;Min_cycle;Max_cycle;Signal;HPM_P1;HPM_P2
2022/01/24 00:01:12;;;;;;;37.67;24.02;;;;;;;9.80;59.84;103414.78;5054281;28;20068;-65
2022/01/24 00:03:42;;;;;;;40.75;24.08;;;;;;;9.83;59.83;103406.66;5055017;28;20045;-65
2022/01/24 00:06:13;;;;;;;34.88;23.60;;;;;;;9.83;59.64;103410.22;5054420;28;20049;-65
2022/01/24 00:08:39;;;;;;;35.05;23.60;;;;;;;9.83;59.57;103417.38;5054428;28;20501;-66
2022/01/24 00:11:10;;;;;;;34.03;23.15;;;;;;;9.80;59.59;103407.59;5053817;28;20498;-65
2022/01/24 00:14:28;;;;;;;38.92;23.40;;;;;;;9.80;59.40;103410.28;5054684;28;20072;-66
2022/01/24 00:27:16;;;;;;;31.10;21.35;;;;;;;9.67;59.21;103407.97;5034284;28;20042;-65
2022/01/24 00:29:42;;;;;;;31.13;20.88;;;;;;;9.68;59.25;103407.06;5034096;28;20499;-65
2022/01/24 00:32:09;;;;;;;30.85;21.50;;;;;;;9.70;59.35;103405.22;5053804;28;20045;-66
2022/01/24 00:34:40;;;;;;;33.30;22.08;;;;;;;9.70;59.11;103397.16;5054592;28;20045;-65
2022/01/24 00:37:08;;;;;;;32.83;21.17;;;;;;;9.68;59.10;103399.00;5053963;28;20076;-65
2022/01/24 00:39:34;;;;;;;32.05;21.40;;;;;;;9.65;59.13;103405.31;5053693;28;20041;-65
2022/01/24 00:47:20;;;;;;;28.17;20.00;;;;;;;9.64;59.13;103394.59;5053674;28;20033;-65
2022/01/24 00:53:10;;;;;;;33.08;20.83;;;;;;;9.65;58.79;103393.69;5053301;28;20055;-65
2022/01/24 00:55:43;;;;;;;32.28;21.55;;;;;;;9.65;58.71;103397.25;5052954;28;20033;-65
2022/01/24 00:58:09;;;;;;;32.47;21.55;;;;;;;9.65;58.81;103397.25;5053154;28;20041;-65
2022/01/24 01:00:37;;;;;;;31.70;21.35;;;;;;;9.64;58.77;103392.81;5053731;28;20076;-65
2022/01/24 01:03:07;;;;;;;31.55;20.45;;;;;;;9.63;58.73;103382.13;5053395;28;20041;-65
2022/01/24 01:05:53;;;;;;;32.47;20.17;;;;;;;9.61;58.66;103383.97;5053864;28;20059;-65
2022/01/24 01:19:04;;;;;;;30.53;20.77;;;;;;;9.53;58.77;103384.16;5052655;28;20102;-65
2022/01/24 01:21:31;;;;;;;30.40;20.13;;;;;;;9.55;58.57;103393.06;5052742;28;20765;-65
2022/01/24 01:24:00;;;;;;;28.70;19.40;;;;;;;9.54;58.57;103392.16;5052004;28;20053;-65
2022/01/24 01:29:03;;;;;;;26.73;20.23;;;;;;;9.57;58.51;103375.13;5052473;28;20111;-65
2022/01/24 01:39:50;;;;;;;31.20;20.10;;;;;;;9.63;58.21;103382.13;5052668;28;20479;-65
2022/01/24 01:56:06;;;;;;;31.23;20.67;;;;;;;9.62;58.29;103385.72;5052289;28;20453;-64
2022/01/24 01:58:33;;;;;;;31.95;20.55;;;;;;;9.62;58.48;103377.69;5052042;28;20037;-65
2022/01/24 02:01:02;;;;;;;30.75;21.08;;;;;;;9.62;58.28;103373.19;5051990;28;20041;-65
2022/01/24 02:03:33;;;;;;;24.67;17.98;;;;;;;9.62;58.24;103373.19;5052160;28;20052;-65
2022/01/24 02:06:00;;;;;;;27.08;19.17;;;;;;;9.63;58.11;103379.44;5051766;28;20045;-65
2022/01/24 02:08:28;;;;;;;29.48;18.55;;;;;;;9.62;58.33;103372.31;5051551;28;20056;-65
2022/01/24 02:10:55;;;;;;;30.77;18.08;;;;;;;9.61;58.10;103374.09;5051681;28;20045;-65
2022/01/24 02:13:29;;;;;;;28.65;18.25;;;;;;;9.61;58.00;103373.22;5051868;28;20479;-65
2022/01/24 02:16:10;;;;;;;31.15;19.77;;;;;;;9.62;58.01;103375.00;5051692;28;20064;-65
2022/01/24 02:18:50;;;;;;;26.13;18.30;;;;;;;9.62;58.03;103369.63;5051687;28;20495;-65
2022/01/24 02:21:41;;;;;;;25.90;17.63;;;;;;;9.57;57.92;103369.75;5051743;28;20045;-65
2022/01/24 02:24:10;;;;;;;24.52;16.95;;;;;;;9.53;57.79;103360.03;5051492;28;20053;-65
2022/01/24 02:26:36;;;;;;;27.30;18.48;;;;;;;9.49;57.80;103361.91;5051737;28;20049;-65
2022/01/24 02:34:23;;;;;;;22.10;15.45;;;;;;;9.37;57.72;103361.34;5051482;28;20059;-65
2022/01/24 02:36:51;;;;;;;21.15;15.32;;;;;;;9.36;57.84;103360.47;5051455;28;20048;-65
2022/01/24 02:39:43;;;;;;;23.63;15.50;;;;;;;9.33;57.89;103360.53;5051217;28;20041;-65
2022/01/24 02:53:19;;;;;;;25.20;16.90;;;;;;;9.24;57.91;103353.63;5020250;28;20059;-65
2022/01/24 02:55:46;;;;;;;24.05;17.13;;;;;;;9.22;57.84;103350.09;5051281;28;20110;-65
2022/01/24 02:58:15;;;;;;;23.52;17.23;;;;;;;9.22;57.68;103362.63;5051128;28;20040;-65
2022/01/24 03:00:45;;;;;;;25.63;17.55;;;;;;;9.21;57.75;103356.38;5051266;28;20055;-65
2022/01/24 03:03:16;;;;;;;28.08;18.13;;;;;;;9.26;57.67;103350.03;5051247;28;20049;-65
2022/01/24 03:05:43;;;;;;;25.25;17.63;;;;;;;9.29;57.85;103353.50;5050931;28;20040;-65
2022/01/24 03:08:11;;;;;;;27.27;19.02;;;;;;;9.33;57.74;103351.63;5050753;28;20045;-66
2022/01/24 03:10:42;;;;;;;24.40;17.50;;;;;;;9.34;57.85;103350.69;5050736;28;20051;-65
2022/01/24 03:15:46;;;;;;;25.60;18.40;;;;;;;9.38;57.79;103339.84;5051366;28;20048;-65
2022/01/24 03:18:14;;;;;;;26.20;17.38;;;;;;;9.40;57.98;103338.00;5051238;28;20045;-65
2022/01/24 03:20:41;;;;;;;28.20;18.73;;;;;;;9.40;57.61;103338.00;5051036;28;20107;-65
2022/01/24 03:23:14;;;;;;;28.35;18.77;;;;;;;9.39;57.50;103340.72;5051194;28;20055;-65
2022/01/24 03:25:41;;;;;;;25.90;17.42;;;;;;;9.37;57.47;103332.72;5051230;28;20037;-65
2022/01/24 03:28:08;;;;;;;26.50;18.17;;;;;;;9.35;57.67;103331.88;5058300;28;20092;-65
2022/01/24 03:30:36;;;;;;;27.67;18.00;;;;;;;9.34;57.52;103332.81;5031419;28;20049;-65
2022/01/24 03:33:07;;;;;;;28.05;18.85;;;;;;;9.36;57.66;103332.78;5031189;28;20050;-65
2022/01/24 03:35:34;;;;;;;30.67;19.13;;;;;;;9.37;57.73;103334.53;5037737;28;20037;-65
2022/01/24 03:38:02;;;;;;;28.08;18.65;;;;;;;9.39;57.78;103332.69;5051006;28;20037;-65
2022/01/24 03:40:29;;;;;;;28.15;19.15;;;;;;;9.41;57.69;103333.53;5049813;28;20049;-65
2022/01/24 03:42:59;;;;;;;27.75;18.00;;;;;;;9.42;57.70;103336.16;5051122;28;20491;-65
2022/01/24 03:46:08;;;;;;;25.25;17.67;;;;;;;9.41;57.85;103329.03;5051303;28;20080;-65
2022/01/24 03:51:33;;;;;;;28.20;19.88;;;;;;;9.38;57.80;103330.94;5051616;28;20045;-65
2022/01/24 03:54:03;;;;;;;27.05;19.60;;;;;;;9.36;57.74;103338.13;5054071;28;20527;-64
2022/01/24 03:56:30;;;;;;;24.70;18.23;;;;;;;9.37;57.77;103335.41;5054543;28;20535;-65
2022/01/24 03:58:56;;;;;;;28.88;18.33;;;;;;;9.35;57.91;103334.56;5054171;28;20044;-65
2022/01/24 04:01:23;;;;;;;28.40;19.20;;;;;;;9.33;57.93;103330.16;5055677;28;20044;-65
2022/01/24 04:03:54;;;;;;;25.98;18.17;;;;;;;9.32;57.70;103325.72;5055642;28;20037;-65
2022/01/24 04:06:21;;;;;;;25.73;17.95;;;;;;;9.33;58.05;103327.50;5055391;28;20056;-64
2022/01/24 04:08:47;;;;;;;28.83;17.83;;;;;;;9.33;57.88;103317.63;5054790;28;20121;-65
2022/01/24 04:11:14;;;;;;;26.52;18.10;;;;;;;9.34;57.97;103323.88;5054910;28;20045;-65
2022/01/24 04:13:44;;;;;;;24.92;17.85;;;;;;;9.36;57.83;103327.41;5053444;28;20499;-66
2022/01/24 04:16:33;;;;;;;25.77;18.15;;;;;;;9.33;57.81;103317.63;5055080;28;20099;-66
2022/01/24 04:21:18;;;;;;;26.55;16.75;;;;;;;9.34;57.85;103318.53;5054752;28;20465;-65
2022/01/24 04:22:02;;;;;;;24.17;17.08;;;;;;;9.32;57.77;103329.28;5053393;28;20045;-66
2022/01/24 04:24:33;;;;;;;24.65;17.73;;;;;;;9.30;57.81;103325.75;5054601;28;20123;-65
2022/01/24 04:27:00;;;;;;;24.60;17.15;;;;;;;9.30;57.58;103323.09;5054741;28;20083;-65
2022/01/24 04:29:27;;;;;;;28.17;18.58;;;;;;;9.33;57.89;103322.13;5054120;28;20051;-65
2022/01/24 04:31:53;;;;;;;25.42;18.80;;;;;;;9.33;57.77;103323.00;5052874;28;20059;-65
2022/01/24 04:34:22;;;;;;;28.42;19.20;;;;;;;9.34;57.92;103323.88;5054338;28;20507;-66
2022/01/24 04:36:48;;;;;;;27.80;18.85;;;;;;;9.34;58.03;103324.75;5054444;28;20043;-65
2022/01/24 04:39:16;;;;;;;26.17;17.92;;;;;;;9.36;57.95;103335.44;5053773;28;20051;-65
2022/01/24 04:41:46;;;;;;;26.80;18.08;;;;;;;9.33;57.70;103328.38;5054421;28;20083;-66
2022/01/24 04:44:51;;;;;;;29.00;18.85;;;;;;;9.30;57.77;103336.50;5052819;28;20407;-65
2022/01/24 04:53:48;;;;;;;29.13;18.48;;;;;;;9.26;57.79;103332.13;5041623;28;20128;-65
2022/01/24 04:55:34;;;;;;;25.00;17.15;;;;;;;9.27;57.74;103328.53;5050018;28;20065;-65
2022/01/24 04:58:00;;;;;;;24.27;16.75;;;;;;;9.25;57.74;103327.69;5053262;28;20068;-64
2022/01/24 05:00:27;;;;;;;23.65;15.73;;;;;;;9.23;57.83;103333.09;5053526;28;20041;-65
2022/01/24 05:02:58;;;;;;;23.85;16.50;;;;;;;9.22;57.83;103336.69;5053538;28;20132;-66
2022/01/24 05:05:27;;;;;;;21.65;15.35;;;;;;;9.22;57.88;103335.81;5053402;28;20045;-65
2022/01/24 05:07:54;;;;;;;25.05;15.63;;;;;;;9.21;57.83;103337.59;5053045;28;20487;-65
2022/01/24 05:10:30;;;;;;;23.60;16.67;;;;;;;9.22;57.80;103342.06;5053390;28;20059;-64
2022/01/24 05:21:40;;;;;;;;;;;;;;;9.20;57.98;103337.66;5053486;28;20033;-65
2022/01/24 05:24:09;;;;;;;22.13;14.45;;;;;;;9.22;58.01;103333.13;5053008;28;19924;-64
2022/01/24 05:26:36;;;;;;;21.13;14.25;;;;;;;9.21;57.96;103332.25;5052870;28;20053;-64
2022/01/24 05:29:03;;;;;;;22.38;15.60;;;;;;;9.23;57.92;103337.56;5052885;28;20410;-64
2022/01/24 05:31:29;;;;;;;20.70;14.27;;;;;;;9.22;57.94;103335.81;5052961;28;20120;-64
2022/01/24 05:33:59;;;;;;;21.75;14.30;;;;;;;9.21;57.68;103334.06;5052819;28;20134;-65
2022/01/24 05:36:25;;;;;;;21.90;15.43;;;;;;;9.18;57.92;103328.75;5052649;28;20372;-65
2022/01/24 05:38:52;;;;;;;21.83;14.60;;;;;;;9.16;57.74;103330.59;5052461;28;20135;-65
2022/01/24 05:41:19;;;;;;;21.35;14.85;;;;;;;9.14;57.84;103332.44;5052655;28;20123;-65
2022/01/24 05:43:45;;;;;;;19.73;13.77;;;;;;;9.15;57.85;103331.53;5052628;28;20049;-65
2022/01/24 05:46:12;;;;;;;21.48;14.50;;;;;;;9.15;57.89;103336.88;5052348;28;20037;-65
2022/01/24 05:48:39;;;;;;;21.23;14.65;;;;;;;9.15;57.90;103339.56;5051067;28;20044;-65
2022/01/24 05:51:05;;;;;;;21.65;14.68;;;;;;;9.14;57.83;103336.00;5052308;28;20036;-64
2022/01/24 05:53:33;;;;;;;21.45;14.93;;;;;;;9.14;57.83;103337.81;5052609;28;20466;-64
2022/01/24 05:56:00;;;;;;;21.23;15.18;;;;;;;9.14;57.85;103336.00;5051792;28;20049;-65
2022/01/24 05:58:26;;;;;;;21.77;14.88;;;;;;;9.12;57.86;103337.84;5051982;28;20045;-65
2022/01/24 06:00:53;;;;;;;22.08;14.60;;;;;;;9.11;57.77;103348.59;5052163;28;20127;-65
2022/01/24 06:03:24;;;;;;;21.70;14.70;;;;;;;9.08;57.79;103352.25;5052432;28;20462;-64
2022/01/24 06:05:51;;;;;;;20.15;14.75;;;;;;;9.05;57.87;103336.25;5052296;28;20041;-65
2022/01/24 06:08:17;;;;;;;21.77;14.82;;;;;;;9.03;57.76;103339.88;5051911;28;20044;-64
2022/01/24 06:10:46;;;;;;;21.73;14.88;;;;;;;9.03;57.87;103339.88;5050238;28;20041;-65
2022/01/24 06:13:16;;;;;;;23.08;14.70;;;;;;;8.98;57.83;103340.00;5051882;28;20047;-65
2022/01/24 06:15:43;;;;;;;21.88;15.45;;;;;;;8.94;57.92;103341.00;5052142;28;20409;-65
2022/01/24 06:18:09;;;;;;;22.98;15.18;;;;;;;8.91;57.87;103335.66;5051461;28;20124;-65
2022/01/24 06:20:41;;;;;;;21.95;14.93;;;;;;;8.86;58.00;103343.81;5050753;28;20044;-66
2022/01/24 06:23:16;;;;;;;19.15;13.93;;;;;;;8.82;57.95;103338.56;5052039;28;20094;-64
2022/01/24 06:25:44;;;;;;;20.38;13.68;;;;;;;8.81;58.05;103343.06;5050580;28;20274;-64
2022/01/24 06:28:11;;;;;;;20.73;14.80;;;;;;;8.83;57.97;103337.66;5051581;28;20047;-65
2022/01/24 06:30:37;;;;;;;19.88;13.85;;;;;;;8.82;58.25;103336.78;5051922;28;20132;-64
2022/01/24 06:33:04;;;;;;;20.30;13.43;;;;;;;8.82;58.07;103336.78;5051506;28;20059;-65
2022/01/24 06:35:31;;;;;;;19.77;14.13;;;;;;;8.81;58.07;103340.38;5051664;28;20037;-64
2022/01/24 06:37:58;;;;;;;20.00;13.77;;;;;;;8.78;58.18;103335.09;5050469;28;20041;-65
2022/01/24 06:40:24;;;;;;;20.48;14.13;;;;;;;8.76;58.10;103339.59;5050215;28;20127;-65
2022/01/24 06:42:51;;;;;;;19.23;13.38;;;;;;;8.74;58.18;103333.41;5051404;28;20048;-65
2022/01/24 06:45:28;;;;;;;19.65;13.73;;;;;;;8.71;58.09;103344.19;5050798;28;20103;-64
2022/01/24 06:47:54;;;;;;;19.65;13.20;;;;;;;8.69;58.09;103340.66;5047635;28;20067;-65
2022/01/24 06:50:21;;;;;;;21.50;13.85;;;;;;;8.66;58.17;103348.78;5047358;28;20037;-65
2022/01/24 06:52:48;;;;;;;18.25;12.80;;;;;;;8.62;58.16;103346.19;5050008;28;20033;-66
2022/01/24 06:55:14;;;;;;;18.00;12.68;;;;;;;8.56;58.13;103348.09;5051915;28;20499;-65
2022/01/24 06:57:41;;;;;;;20.13;12.48;;;;;;;8.53;58.31;103344.63;5047519;28;20116;-65
2022/01/24 07:00:09;;;;;;;20.92;13.68;;;;;;;8.49;58.16;103348.28;5051660;28;20572;-65
2022/01/24 07:02:36;;;;;;;16.75;12.43;;;;;;;8.47;58.08;103350.09;5050284;28;20033;-65
2022/01/24 07:05:08;;;;;;;16.08;12.20;;;;;;;8.44;58.36;103356.41;5051961;28;20104;-65
2022/01/24 07:07:35;;;;;;;20.05;13.20;;;;;;;8.42;58.28;103352.88;5051988;28;20055;-65
2022/01/24 07:10:01;;;;;;;19.35;12.93;;;;;;;8.43;58.34;103351.09;5051423;28;20040;-65
2022/01/24 07:12:48;;;;;;;17.05;12.43;;;;;;;8.46;58.39;103356.38;5047805;28;20037;-65
2022/01/24 07:15:17;;;;;;;18.85;12.85;;;;;;;8.44;58.33;103350.19;5048430;28;20044;-65
2022/01/24 07:20:29;;;;;;;18.83;13.70;;;;;;;8.47;58.51;103356.34;5041823;28;20049;-64
2022/01/24 07:23:03;;;;;;;19.30;12.90;;;;;;;8.49;58.52;103356.31;5051717;28;20045;-65
2022/01/24 07:25:30;;;;;;;20.13;12.88;;;;;;;8.51;58.53;103357.16;5063393;28;20071;-65
2022/01/24 07:27:57;;;;;;;16.90;11.98;;;;;;;8.47;58.44;103351.00;5054533;28;20465;-64
2022/01/24 07:30:24;;;;;;;17.70;12.65;;;;;;;8.45;58.40;103359.97;5050490;28;20041;-64
2022/01/24 07:32:51;;;;;;;19.13;12.85;;;;;;;8.44;58.52;103360.88;5052929;28;20136;-65
2022/01/24 07:35:25;;;;;;;20.40;13.77;;;;;;;8.44;58.52;103355.53;5057474;28;20103;-64
2022/01/24 07:37:52;;;;;;;19.08;12.80;;;;;;;8.44;58.57;103361.78;5050900;28;20037;-65
2022/01/24 07:40:20;;;;;;;20.65;12.93;;;;;;;8.43;58.49;103357.34;5050060;28;20037;-65
2022/01/24 07:43:08;;;;;;;17.38;12.55;;;;;;;8.41;58.50;103355.59;5030413;28;20672;-65
2022/01/24 07:45:36;;;;;;;15.63;11.57;;;;;;;8.40;58.43;103357.41;5054429;28;20095;-65
2022/01/24 07:48:05;;;;;;;16.65;12.80;;;;;;;8.41;58.60;103363.63;5053566;28;20473;-65
2022/01/24 07:50:35;;;;;;;16.50;12.65;;;;;;;8.43;58.58;103377.88;5053677;28;20052;-65
2022/01/24 07:53:14;;;;;;;17.17;12.88;;;;;;;8.43;58.58;103381.44;5054692;28;20107;-66
2022/01/24 07:56:00;;;;;;;18.23;12.15;;;;;;;8.47;58.63;103377.78;5054618;28;20040;-65
2022/01/24 07:58:28;;;;;;;18.98;12.77;;;;;;;8.48;58.66;103387.56;5054384;28;20076;-65
2022/01/24 08:00:55;;;;;;;16.98;12.43;;;;;;;8.50;58.67;103385.75;5054375;28;20095;-65
2022/01/24 08:03:26;;;;;;;16.25;12.52;;;;;;;8.53;58.64;103388.34;5054504;28;20041;-65
2022/01/24 08:05:53;;;;;;;17.13;12.52;;;;;;;8.56;58.67;103390.06;5054012;28;20356;-65
2022/01/24 08:08:20;;;;;;;18.17;11.90;;;;;;;8.56;58.46;103390.06;5054052;28;20479;-65
2022/01/24 08:10:46;;;;;;;15.98;11.95;;;;;;;8.57;58.64;103391.84;5052615;28;20095;-65
2022/01/24 08:13:13;;;;;;;16.40;12.38;;;;;;;8.56;58.66;103398.13;5054376;28;20116;-65
2022/01/24 08:15:40;;;;;;;16.98;12.05;;;;;;;8.53;58.70;103396.38;5054111;28;20405;-66
2022/01/24 08:18:07;;;;;;;18.77;12.70;;;;;;;8.51;58.57;103394.66;5053929;28;20099;-65
2022/01/24 08:20:33;;;;;;;17.10;12.52;;;;;;;8.49;58.58;103388.44;5053990;28;20039;-65
2022/01/24 08:23:11;;;;;;;15.95;12.40;;;;;;;8.47;58.65;103395.63;5054059;28;20037;-65
2022/01/24 08:25:39;;;;;;;18.02;12.73;;;;;;;8.47;58.71;103391.16;5053743;28;20145;-65
2022/01/24 08:28:06;;;;;;;16.55;12.35;;;;;;;8.46;58.69;103392.06;5053507;28;20131;-65
2022/01/24 08:30:33;;;;;;;17.98;12.02;;;;;;;8.45;58.48;103392.09;5053843;28;20123;-65
2022/01/24 08:33:05;;;;;;;17.73;12.63;;;;;;;8.45;58.74;103394.78;5053167;28;20041;-66
2022/01/24 08:35:33;;;;;;;17.58;12.13;;;;;;;8.45;58.67;103392.09;5053997;28;20508;-66
2022/01/24 08:37:59;;;;;;;15.73;11.48;;;;;;;8.45;58.75;103392.09;5053633;28;20487;-65
2022/01/24 08:40:28;;;;;;;15.50;12.27;;;;;;;8.44;58.69;103395.69;5053561;28;20409;-65
2022/01/24 08:43:03;;;;;;;16.55;12.27;;;;;;;8.44;58.78;103393.03;5053273;28;20403;-66
2022/01/24 08:45:50;;;;;;;14.15;11.27;;;;;;;8.43;58.88;103388.59;5053410;28;20049;-65
2022/01/24 08:48:24;;;;;;;16.15;12.13;;;;;;;8.43;58.92;103394.81;5052732;28;20037;-61
2022/01/24 08:50:54;;;;;;;14.20;11.68;;;;;;;8.44;58.87;103387.66;5051179;28;20040;-60
2022/01/24 08:53:31;;;;;;;16.17;11.88;;;;;;;8.45;58.98;103389.44;5052973;28;20075;-61
2022/01/24 08:55:59;;;;;;;14.70;11.32;;;;;;;8.47;58.86;103398.31;5053031;28;20053;-61
2022/01/24 08:58:27;;;;;;;15.77;11.95;;;;;;;8.48;58.85;103392.03;5052921;28;20438;-61
2022/01/24 09:00:54;;;;;;;14.70;10.80;;;;;;;8.50;58.99;103392.88;5053201;28;20033;-61
2022/01/24 09:03:25;;;;;;;14.23;11.18;;;;;;;8.49;58.87;103386.66;5053455;28;20051;-61
2022/01/24 09:05:53;;;;;;;13.77;10.55;;;;;;;8.49;58.79;103389.31;5052998;28;20077;-61
2022/01/24 09:08:22;;;;;;;15.25;11.40;;;;;;;8.51;58.84;103389.28;5051215;28;20045;-62
2022/01/24 09:10:50;;;;;;;14.02;11.07;;;;;;;8.53;59.10;103393.69;5052721;28;20116;-61
2022/01/24 09:13:21;;;;;;;13.88;11.32;;;;;;;8.57;58.97;103391.84;5052648;28;20051;-61
2022/01/24 09:15:49;;;;;;;16.50;12.25;;;;;;;8.60;59.04;103389.09;5052144;28;20372;-61
2022/01/24 09:18:18;;;;;;;15.48;11.65;;;;;;;8.62;58.92;103392.63;5052180;28;20120;-61
2022/01/24 09:20:48;;;;;;;14.82;11.40;;;;;;;8.62;58.85;103384.59;5052257;28;20037;-61
2022/01/24 09:23:19;;;;;;;13.55;11.02;;;;;;;8.62;58.88;103391.72;5051027;28;20052;-61
2022/01/24 09:25:46;;;;;;;16.55;11.43;;;;;;;8.60;58.86;103389.09;5052748;28;20068;-60
2022/01/24 09:28:13;;;;;;;14.52;11.63;;;;;;;8.60;58.77;103389.97;5052677;28;20045;-61
2022/01/24 09:30:40;;;;;;;15.05;11.38;;;;;;;8.61;58.80;103398.88;5052072;28;20060;-62
2022/01/24 09:33:11;;;;;;;15.77;11.93;;;;;;;8.61;58.93;103390.84;5052486;28;20498;-62
2022/01/24 09:35:43;;;;;;;15.63;11.57;;;;;;;8.63;59.01;103399.75;5052761;28;20375;-62
2022/01/24 09:38:10;;;;;;;15.95;11.75;;;;;;;8.65;58.97;103394.34;5052616;28;20071;-62
2022/01/24 09:40:38;;;;;;;17.40;11.27;;;;;;;8.65;58.96;103397.91;5053063;28;20055;-63
2022/01/24 09:43:08;;;;;;;16.05;12.05;;;;;;;8.65;58.85;103395.22;5052678;28;20043;-62
2022/01/24 09:45:36;;;;;;;16.90;11.77;;;;;;;8.69;58.88;103391.56;5052069;28;20045;-62
2022/01/24 09:48:03;;;;;;;16.73;11.60;;;;;;;8.74;58.78;103397.69;5052750;28;20437;-63
2022/01/24 09:50:30;;;;;;;15.90;11.98;;;;;;;8.80;58.79;103392.19;5052835;28;20128;-62
2022/01/24 09:53:01;;;;;;;16.92;12.02;;;;;;;8.85;58.70;103394.78;5053295;28;20033;-62
2022/01/24 09:55:28;;;;;;;16.67;11.52;;;;;;;8.89;58.76;103391.97;5052765;28;20107;-63
2022/01/24 09:57:55;;;;;;;15.65;11.65;;;;;;;8.91;58.70;103391.94;5053015;28;20445;-62
2022/01/24 10:00:25;;;;;;;16.23;11.77;;;;;;;8.96;58.71;103391.88;5052519;28;20037;-62
2022/01/24 10:03:17;;;;;;;17.05;12.38;;;;;;;8.99;58.58;103387.31;5052923;28;20037;-62
2022/01/24 10:06:04;;;;;;;14.77;11.88;;;;;;;9.05;58.52;103386.28;5052593;28;20052;-62
2022/01/24 10:08:31;;;;;;;17.95;12.55;;;;;;;9.07;58.53;103390.69;5051808;28;20064;-62
2022/01/24 10:11:02;;;;;;;19.23;11.60;;;;;;;9.08;58.46;103388.91;5051867;28;20180;-62
2022/01/24 10:16:30;;;;;;;15.40;11.93;;;;;;;9.13;58.38;103382.50;5051132;28;20049;-62
2022/01/24 10:19:22;;;;;;;19.02;12.38;;;;;;;9.17;58.55;103378.81;5051693;28;20040;-62
2022/01/24 10:22:00;;;;;;;15.45;12.15;;;;;;;9.24;58.36;103382.22;5052047;28;20124;-63
2022/01/24 10:24:37;;;;;;;14.82;11.77;;;;;;;9.29;58.37;103380.31;5051985;28;20049;-62
2022/01/24 10:27:20;;;;;;;14.98;12.15;;;;;;;9.33;58.49;103386.47;5051643;28;20049;-62
2022/01/24 10:29:57;;;;;;;14.82;11.02;;;;;;;9.37;58.19;103382.81;5052089;28;20073;-62
2022/01/24 10:32:38;;;;;;;14.43;11.40;;;;;;;9.41;58.26;103384.47;5051532;28;20041;-63
2022/01/24 10:35:31;;;;;;;13.85;11.02;;;;;;;9.46;58.31;103388.81;5081907;28;20457;-62
2022/01/24 10:43:39;;;;;;;;;;;;;;;9.53;58.01;103366.25;5033346;28;20092;-63
2022/01/24 10:46:07;;;;;;;14.38;10.68;;;;;;;9.59;57.93;103367.03;5051630;28;20378;-63
2022/01/24 10:48:42;;;;;;;15.48;12.07;;;;;;;9.57;57.91;103359.91;5050877;28;20056;-62
2022/01/24 10:51:18;;;;;;;16.58;12.07;;;;;;;9.57;58.00;103365.25;5050188;28;20044;-62
2022/01/24 10:53:56;;;;;;;15.55;11.85;;;;;;;9.56;58.03;103363.50;5051262;28;20143;-62
2022/01/24 10:56:34;;;;;;;18.30;13.63;;;;;;;9.57;58.01;103356.34;5053743;28;20128;-63
2022/01/24 10:59:03;;;;;;;15.95;13.50;;;;;;;9.63;58.03;103368.69;5055283;28;20045;-63
2022/01/24 11:01:33;;;;;;;16.45;13.50;;;;;;;9.67;57.98;103355.19;5054389;28;20033;-62
2022/01/24 11:04:07;;;;;;;15.75;13.18;;;;;;;9.71;58.06;103350.63;5055546;28;20383;-62
2022/01/24 11:06:37;;;;;;;18.30;13.20;;;;;;;9.78;57.83;103346.84;5055394;28;20400;-62
2022/01/24 11:09:23;;;;;;;14.82;12.25;;;;;;;9.82;57.71;103343.16;5053530;28;20037;-62
2022/01/24 11:11:57;;;;;;;14.38;12.00;;;;;;;9.89;57.68;103339.38;5035464;28;20037;-64
2022/01/24 11:14:26;;;;;;;17.23;13.10;;;;;;;9.96;57.67;103345.44;5035068;28;20042;-64
2022/01/24 11:16:54;;;;;;;16.85;13.05;;;;;;;10.06;57.52;103346.94;5034725;28;20103;-63
2022/01/24 11:19:30;;;;;;;17.23;13.38;;;;;;;10.19;57.53;103341.16;5034344;28;20064;-64
2022/01/24 11:21:59;;;;;;;15.15;12.63;;;;;;;10.34;57.51;103347.03;5034773;28;20033;-64
2022/01/24 11:24:38;;;;;;;15.45;12.48;;;;;;;10.47;57.63;103329.66;5034725;28;20389;-64
2022/01/24 11:27:26;;;;;;;16.88;12.55;;;;;;;10.58;57.52;103332.00;5034730;28;20046;-64
2022/01/24 11:29:56;;;;;;;14.05;12.55;;;;;;;10.62;57.37;103334.53;5034511;28;20076;-63
2022/01/24 11:32:33;;;;;;;16.60;12.13;;;;;;;10.66;57.16;103332.63;5034319;28;20069;-64
2022/01/24 11:35:01;;;;;;;13.23;11.45;;;;;;;10.62;56.94;103330.97;5034626;28;20057;-64
2022/01/24 11:37:36;;;;;;;14.77;12.10;;;;;;;10.56;56.48;103331.16;5034376;28;20038;-65
2022/01/24 11:40:09;;;;;;;17.30;11.73;;;;;;;10.48;56.17;103328.72;5034061;28;20366;-64
2022/01/24 11:42:36;;;;;;;14.35;11.57;;;;;;;10.44;56.27;103341.38;5034524;28;20069;-64
2022/01/24 11:45:45;;;;;;;14.25;11.60;;;;;;;10.42;56.50;103343.22;5033089;28;20045;-64
2022/01/24 11:48:22;;;;;;;14.80;12.52;;;;;;;10.46;56.27;103338.63;5034116;28;20041;-64
2022/01/24 11:51:03;;;;;;;15.35;13.02;;;;;;;10.50;56.33;103338.47;5034009;28;20454;-64
2022/01/24 11:53:43;;;;;;;17.23;13.27;;;;;;;10.56;56.34;103329.34;5034379;28;20049;-64
2022/01/24 11:56:16;;;;;;;14.45;12.27;;;;;;;10.64;56.41;103321.94;5033985;28;20491;-64
2022/01/24 11:58:43;;;;;;;16.02;12.32;;;;;;;10.75;56.38;103318.91;5033869;28;20467;-64
2022/01/24 12:01:14;;;;;;;15.60;12.52;;;;;;;10.83;56.25;103317.72;5033909;28;20049;-64
2022/01/24 12:03:52;;;;;;;14.52;11.88;;;;;;;10.93;56.31;103318.28;5032985;28;20076;-64
2022/01/24 12:06:20;;;;;;;12.40;10.52;;;;;;;10.95;56.07;103315.53;5033865;28;20056;-64
2022/01/24 12:09:07;;;;;;;12.43;10.07;;;;;;;10.92;55.94;103307.59;5033301;28;20048;-64
2022/01/24 12:11:36;;;;;;;14.50;11.15;;;;;;;10.89;55.72;103307.69;5033535;28;20042;-64
2022/01/24 12:14:37;;;;;;;11.70;10.27;;;;;;;10.82;55.67;103315.94;5034298;28;20037;-64
2022/01/24 12:17:09;;;;;;;14.13;11.50;;;;;;;10.87;55.69;103315.81;5033651;28;20040;-64
2022/01/24 12:19:36;;;;;;;15.30;11.82;;;;;;;10.93;55.75;103320.97;5033406;28;20045;-64
2022/01/24 12:22:38;;;;;;;14.27;11.57;;;;;;;11.01;55.76;103313.53;5033683;28;20133;-64
2022/01/24 12:25:08;;;;;;;14.73;11.98;;;;;;;11.11;55.92;103317.66;5033830;28;20136;-65
2022/01/24 12:27:35;;;;;;;16.55;12.93;;;;;;;11.18;55.89;103315.69;5050185;28;20144;-65
2022/01/24 12:30:02;;;;;;;15.45;12.35;;;;;;;11.28;55.99;103308.16;5054466;28;20460;-65
2022/01/24 12:32:28;;;;;;;18.00;12.02;;;;;;;11.38;55.83;103305.09;5053906;28;20043;-65
2022/01/24 12:34:59;;;;;;;14.90;12.00;;;;;;;11.45;55.76;103301.25;5054791;28;20071;-65
2022/01/24 12:37:30;;;;;;;14.45;12.20;;;;;;;11.50;55.77;103301.09;5055182;28;20045;-65
2022/01/24 12:40:07;;;;;;;14.00;11.60;;;;;;;11.54;55.77;103299.16;5054784;28;20052;-65
2022/01/24 12:48:30;;;;;;;13.52;11.90;;;;;;;11.57;55.06;103289.19;5054036;28;20045;-65
2022/01/24 12:50:58;;;;;;;14.48;11.48;;;;;;;11.55;55.24;103276.72;5054110;28;20048;-65
2022/01/24 12:53:27;;;;;;;15.55;11.95;;;;;;;11.54;55.00;103275.81;5053091;28;20044;-65
2022/01/24 12:56:03;;;;;;;16.27;12.45;;;;;;;11.52;54.89;103290.28;5054132;28;20065;-65
2022/01/24 12:58:35;;;;;;;14.48;12.20;;;;;;;11.54;54.90;103277.63;5054327;28;20096;-65
2022/01/24 13:01:16;;;;;;;17.02;14.05;;;;;;;11.57;55.01;103272.16;5053700;28;20041;-65
2022/01/24 13:04:13;;;;;;;18.30;14.15;;;;;;;11.61;55.08;103271.09;5053648;28;20037;-64
2022/01/24 13:06:42;;;;;;;;;;;;;;;11.62;55.25;103267.47;5053449;28;20043;-65
2022/01/24 13:09:19;;;;;;;20.42;13.90;;;;;;;11.62;55.03;103268.34;5053895;28;19921;-65
2022/01/24 13:11:53;;;;;;;18.65;14.15;;;;;;;11.53;54.84;103265.13;5054009;28;20049;-65
2022/01/24 13:14:36;;;;;;;16.70;13.77;;;;;;;11.48;54.99;103267.09;5054275;28;20119;-65
2022/01/24 13:25:44;;;;;;;18.60;14.48;;;;;;;11.44;54.76;103269.91;5054002;28;20123;-66
2022/01/24 13:28:13;;;;;;;19.77;14.40;;;;;;;11.51;54.53;103269.69;5085852;28;20045;-66
2022/01/24 13:30:43;;;;;;;21.13;14.50;;;;;;;11.54;54.59;103266.88;5053512;28;20530;-66
2022/01/24 13:33:23;;;;;;;19.17;14.40;;;;;;;11.53;54.68;103274.06;5053699;28;20052;-66